Terminal Aerodrome Forecast
Issued by NWS Pueblo, CO

Home | Current Version | Previous Version | Text Only | Print | Product List | Glossary On
Versions: 1 2 3 4 5 6 7 8 9 10 11 12 13 14 15 16 17 18 19 20 21 22 23 24 25 26 27 28
000
FTUS45 KPUB 150520
TAFCOS
TAF
KCOS 150520Z 1506/1606 35007KT P6SM SCT120 SCT200
     FM151000 36015G25KT P6SM FEW050 SCT100
     FM151600 14012KT P6SM BKN035
     FM152200 17012KT P6SM SCT040 SCT120=

USA.gov is the U.S. government's official web portal to all federal, state and local government web resources and services.